sensor_id;sensor_type;location;lat;lon;timestamp;P1;durP1;ratioP1;P2;durP2;ratioP2
12356;SDS011;6243;51.244;6.774;2023-02-18T00:02:16;9.13;;;8.23;;
12356;SDS011;6243;51.244;6.774;2023-02-18T00:04:42;10.43;;;8.90;;
12356;SDS011;6243;51.244;6.774;2023-02-18T00:07:07;9.90;;;8.40;;
12356;SDS011;6243;51.244;6.774;2023-02-18T00:09:33;9.37;;;8.47;;
12356;SDS011;6243;51.244;6.774;2023-02-18T00:11:58;9.53;;;7.90;;
12356;SDS011;6243;51.244;6.774;2023-02-18T00:14:23;9.27;;;8.37;;
12356;SDS011;6243;51.244;6.774;2023-02-18T00:16:50;9.20;;;8.13;;
12356;SDS011;6243;51.244;6.774;2023-02-18T00:19:16;10.23;;;9.10;;
12356;SDS011;6243;51.244;6.774;2023-02-18T00:21:43;9.73;;;8.50;;
12356;SDS011;6243;51.244;6.774;2023-02-18T00:24:10;10.23;;;8.37;;
12356;SDS011;6243;51.244;6.774;2023-02-18T00:26:37;10.37;;;9.27;;
12356;SDS011;6243;51.244;6.774;2023-02-18T00:29:02;10.23;;;9.23;;
12356;SDS011;6243;51.244;6.774;2023-02-18T00:31:29;9.07;;;8.27;;
12356;SDS011;6243;51.244;6.774;2023-02-18T00:33:57;9.20;;;8.30;;
12356;SDS011;6243;51.244;6.774;2023-02-18T00:36:24;8.77;;;7.80;;
12356;SDS011;6243;51.244;6.774;2023-02-18T00:38:50;9.20;;;8.30;;
12356;SDS011;6243;51.244;6.774;2023-02-18T00:41:17;9.90;;;8.83;;
12356;SDS011;6243;51.244;6.774;2023-02-18T00:43:43;10.27;;;9.17;;
12356;SDS011;6243;51.244;6.774;2023-02-18T00:46:09;9.73;;;8.67;;
12356;SDS011;6243;51.244;6.774;2023-02-18T00:48:35;9.60;;;8.60;;
12356;SDS011;6243;51.244;6.774;2023-02-18T00:51:03;9.33;;;8.47;;
12356;SDS011;6243;51.244;6.774;2023-02-18T00:53:29;12.03;;;9.40;;
12356;SDS011;6243;51.244;6.774;2023-02-18T00:55:55;11.30;;;10.10;;
12356;SDS011;6243;51.244;6.774;2023-02-18T00:58:21;10.47;;;9.37;;
12356;SDS011;6243;51.244;6.774;2023-02-18T01:00:46;10.93;;;9.70;;
12356;SDS011;6243;51.244;6.774;2023-02-18T01:03:12;9.47;;;8.57;;
12356;SDS011;6243;51.244;6.774;2023-02-18T01:05:38;8.27;;;7.57;;
12356;SDS011;6243;51.244;6.774;2023-02-18T01:08:07;10.03;;;9.03;;
12356;SDS011;6243;51.244;6.774;2023-02-18T01:10:34;9.13;;;8.23;;
12356;SDS011;6243;51.244;6.774;2023-02-18T01:13:00;8.97;;;8.00;;
12356;SDS011;6243;51.244;6.774;2023-02-18T01:15:26;10.40;;;9.33;;
12356;SDS011;6243;51.244;6.774;2023-02-18T01:17:52;8.20;;;7.50;;
12356;SDS011;6243;51.244;6.774;2023-02-18T01:20:18;9.30;;;8.30;;
12356;SDS011;6243;51.244;6.774;2023-02-18T01:22:44;10.20;;;8.63;;
12356;SDS011;6243;51.244;6.774;2023-02-18T01:25:11;8.00;;;7.20;;
12356;SDS011;6243;51.244;6.774;2023-02-18T01:27:38;8.47;;;7.67;;
12356;SDS011;6243;51.244;6.774;2023-02-18T01:30:04;8.50;;;7.57;;
12356;SDS011;6243;51.244;6.774;2023-02-18T01:32:31;8.20;;;7.40;;
12356;SDS011;6243;51.244;6.774;2023-02-18T01:34:57;7.83;;;7.03;;
12356;SDS011;6243;51.244;6.774;2023-02-18T01:37:24;8.13;;;7.43;;
12356;SDS011;6243;51.244;6.774;2023-02-18T01:39:50;7.53;;;6.83;;
12356;SDS011;6243;51.244;6.774;2023-02-18T01:42:19;8.53;;;7.63;;
12356;SDS011;6243;51.244;6.774;2023-02-18T01:44:46;8.00;;;7.20;;
12356;SDS011;6243;51.244;6.774;2023-02-18T01:47:13;7.80;;;7.00;;
12356;SDS011;6243;51.244;6.774;2023-02-18T01:49:39;8.37;;;7.47;;
12356;SDS011;6243;51.244;6.774;2023-02-18T01:52:05;7.70;;;7.00;;
12356;SDS011;6243;51.244;6.774;2023-02-18T01:54:34;8.33;;;7.00;;
12356;SDS011;6243;51.244;6.774;2023-02-18T01:57:03;7.97;;;7.17;;
12356;SDS011;6243;51.244;6.774;2023-02-18T01:59:33;8.40;;;7.50;;
12356;SDS011;6243;51.244;6.774;2023-02-18T02:02:02;8.07;;;7.27;;
12356;SDS011;6243;51.244;6.774;2023-02-18T02:04:28;9.23;;;8.00;;
12356;SDS011;6243;51.244;6.774;2023-02-18T02:06:53;9.10;;;7.77;;
12356;SDS011;6243;51.244;6.774;2023-02-18T02:09:19;8.30;;;7.50;;
12356;SDS011;6243;51.244;6.774;2023-02-18T02:14:58;8.13;;;7.33;;
12356;SDS011;6243;51.244;6.774;2023-02-18T02:17:33;9.43;;;8.43;;
12356;SDS011;6243;51.244;6.774;2023-02-18T02:20:15;9.47;;;8.27;;
12356;SDS011;6243;51.244;6.774;2023-02-18T02:23:14;9.67;;;8.67;;
12356;SDS011;6243;51.244;6.774;2023-02-18T02:26:08;10.00;;;8.87;;
12356;SDS011;6243;51.244;6.774;2023-02-18T02:29:03;9.13;;;7.90;;
12356;SDS011;6243;51.244;6.774;2023-02-18T02:37:21;8.67;;;7.77;;
12356;SDS011;6243;51.244;6.774;2023-02-18T02:39:56;8.70;;;7.50;;
12356;SDS011;6243;51.244;6.774;2023-02-18T02:42:29;9.33;;;8.33;;
12356;SDS011;6243;51.244;6.774;2023-02-18T02:45:05;9.90;;;8.03;;
12356;SDS011;6243;51.244;6.774;2023-02-18T02:47:40;9.30;;;7.80;;
12356;SDS011;6243;51.244;6.774;2023-02-18T02:50:16;8.97;;;8.07;;
12356;SDS011;6243;51.244;6.774;2023-02-18T02:52:48;8.67;;;7.60;;
12356;SDS011;6243;51.244;6.774;2023-02-18T02:55:16;9.03;;;8.10;;
12356;SDS011;6243;51.244;6.774;2023-02-18T02:57:44;10.03;;;7.97;;
12356;SDS011;6243;51.244;6.774;2023-02-18T03:00:11;10.80;;;8.70;;
12356;SDS011;6243;51.244;6.774;2023-02-18T03:02:41;10.07;;;8.93;;
12356;SDS011;6243;51.244;6.774;2023-02-18T03:05:26;10.70;;;8.80;;
12356;SDS011;6243;51.244;6.774;2023-02-18T03:08:04;11.33;;;8.90;;
12356;SDS011;6243;51.244;6.774;2023-02-18T03:10:41;10.77;;;9.00;;
12356;SDS011;6243;51.244;6.774;2023-02-18T03:13:15;10.67;;;9.03;;
12356;SDS011;6243;51.244;6.774;2023-02-18T03:15:51;11.90;;;9.23;;
12356;SDS011;6243;51.244;6.774;2023-02-18T03:18:21;11.53;;;9.37;;
12356;SDS011;6243;51.244;6.774;2023-02-18T03:20:54;10.67;;;8.57;;
12356;SDS011;6243;51.244;6.774;2023-02-18T03:23:24;10.70;;;8.67;;
12356;SDS011;6243;51.244;6.774;2023-02-18T03:25:54;11.17;;;9.03;;
12356;SDS011;6243;51.244;6.774;2023-02-18T03:28:21;11.00;;;9.30;;
12356;SDS011;6243;51.244;6.774;2023-02-18T03:30:52;9.73;;;8.33;;
12356;SDS011;6243;51.244;6.774;2023-02-18T03:33:22;12.63;;;9.03;;
12356;SDS011;6243;51.244;6.774;2023-02-18T03:35:53;10.87;;;8.70;;
12356;SDS011;6243;51.244;6.774;2023-02-18T03:38:21;9.80;;;7.80;;
12356;SDS011;6243;51.244;6.774;2023-02-18T03:40:50;9.27;;;8.03;;
12356;SDS011;6243;51.244;6.774;2023-02-18T03:43:15;10.57;;;7.80;;
12356;SDS011;6243;51.244;6.774;2023-02-18T03:45:41;9.80;;;8.20;;
12356;SDS011;6243;51.244;6.774;2023-02-18T03:48:06;9.83;;;7.90;;
12356;SDS011;6243;51.244;6.774;2023-02-18T03:50:32;9.20;;;7.07;;
12356;SDS011;6243;51.244;6.774;2023-02-18T03:52:59;8.87;;;6.63;;
12356;SDS011;6243;51.244;6.774;2023-02-18T03:55:25;7.00;;;6.30;;
12356;SDS011;6243;51.244;6.774;2023-02-18T03:57:50;6.53;;;5.20;;
12356;SDS011;6243;51.244;6.774;2023-02-18T04:00:16;8.20;;;6.03;;
12356;SDS011;6243;51.244;6.774;2023-02-18T04:02:42;7.67;;;5.83;;
12356;SDS011;6243;51.244;6.774;2023-02-18T04:05:07;6.87;;;5.70;;
12356;SDS011;6243;51.244;6.774;2023-02-18T04:07:33;6.80;;;4.90;;
12356;SDS011;6243;51.244;6.774;2023-02-18T04:10:00;5.60;;;4.87;;
12356;SDS011;6243;51.244;6.774;2023-02-18T04:12:26;4.60;;;3.87;;
12356;SDS011;6243;51.244;6.774;2023-02-18T04:14:51;4.27;;;3.77;;
12356;SDS011;6243;51.244;6.774;2023-02-18T04:17:17;3.50;;;3.20;;
12356;SDS011;6243;51.244;6.774;2023-02-18T04:19:42;3.80;;;3.40;;
12356;SDS011;6243;51.244;6.774;2023-02-18T04:22:08;3.50;;;3.20;;
12356;SDS011;6243;51.244;6.774;2023-02-18T04:24:34;2.80;;;2.60;;
12356;SDS011;6243;51.244;6.774;2023-02-18T04:27:00;2.77;;;2.57;;
12356;SDS011;6243;51.244;6.774;2023-02-18T04:29:26;2.87;;;2.50;;
12356;SDS011;6243;51.244;6.774;2023-02-18T04:31:52;2.50;;;2.30;;
12356;SDS011;6243;51.244;6.774;2023-02-18T04:34:17;2.87;;;2.63;;
12356;SDS011;6243;51.244;6.774;2023-02-18T04:36:43;3.13;;;2.37;;
12356;SDS011;6243;51.244;6.774;2023-02-18T04:39:08;2.90;;;2.57;;
12356;SDS011;6243;51.244;6.774;2023-02-18T04:41:34;3.00;;;2.77;;
12356;SDS011;6243;51.244;6.774;2023-02-18T04:44:01;3.00;;;2.73;;
12356;SDS011;6243;51.244;6.774;2023-02-18T04:46:26;2.87;;;2.60;;
12356;SDS011;6243;51.244;6.774;2023-02-18T04:48:52;2.50;;;2.30;;
12356;SDS011;6243;51.244;6.774;2023-02-18T04:51:18;3.07;;;2.77;;
12356;SDS011;6243;51.244;6.774;2023-02-18T04:53:44;3.13;;;2.93;;
12356;SDS011;6243;51.244;6.774;2023-02-18T04:56:09;3.40;;;3.10;;
12356;SDS011;6243;51.244;6.774;2023-02-18T04:58:35;2.97;;;2.67;;
12356;SDS011;6243;51.244;6.774;2023-02-18T05:01:02;2.73;;;2.53;;
12356;SDS011;6243;51.244;6.774;2023-02-18T05:03:28;3.10;;;2.80;;
12356;SDS011;6243;51.244;6.774;2023-02-18T05:05:54;3.57;;;2.70;;
12356;SDS011;6243;51.244;6.774;2023-02-18T05:08:20;3.00;;;2.70;;
12356;SDS011;6243;51.244;6.774;2023-02-18T05:10:46;3.10;;;2.80;;
12356;SDS011;6243;51.244;6.774;2023-02-18T05:13:11;2.70;;;2.50;;
12356;SDS011;6243;51.244;6.774;2023-02-18T05:15:37;2.90;;;2.70;;
12356;SDS011;6243;51.244;6.774;2023-02-18T05:18:04;4.20;;;2.93;;
12356;SDS011;6243;51.244;6.774;2023-02-18T05:20:30;3.53;;;2.53;;
12356;SDS011;6243;51.244;6.774;2023-02-18T05:22:55;2.70;;;2.50;;
12356;SDS011;6243;51.244;6.774;2023-02-18T05:25:21;2.87;;;2.67;;
12356;SDS011;6243;51.244;6.774;2023-02-18T05:27:46;2.73;;;2.53;;
12356;SDS011;6243;51.244;6.774;2023-02-18T05:30:12;3.33;;;2.70;;
12356;SDS011;6243;51.244;6.774;2023-02-18T05:32:37;3.03;;;2.73;;
12356;SDS011;6243;51.244;6.774;2023-02-18T05:35:05;3.17;;;2.87;;
12356;SDS011;6243;51.244;6.774;2023-02-18T05:37:31;2.60;;;2.40;;
12356;SDS011;6243;51.244;6.774;2023-02-18T05:39:57;3.03;;;2.83;;
12356;SDS011;6243;51.244;6.774;2023-02-18T05:42:22;3.30;;;3.00;;
12356;SDS011;6243;51.244;6.774;2023-02-18T05:44:48;3.27;;;2.97;;
12356;SDS011;6243;51.244;6.774;2023-02-18T05:47:13;2.80;;;2.50;;
12356;SDS011;6243;51.244;6.774;2023-02-18T05:49:40;3.20;;;2.90;;
12356;SDS011;6243;51.244;6.774;2023-02-18T05:52:08;3.37;;;2.67;;
12356;SDS011;6243;51.244;6.774;2023-02-18T05:54:34;3.17;;;2.87;;
12356;SDS011;6243;51.244;6.774;2023-02-18T05:57:00;2.70;;;2.50;;
12356;SDS011;6243;51.244;6.774;2023-02-18T05:59:26;2.60;;;2.40;;
12356;SDS011;6243;51.244;6.774;2023-02-18T06:01:52;2.50;;;2.30;;
12356;SDS011;6243;51.244;6.774;2023-02-18T06:04:18;3.03;;;2.70;;
12356;SDS011;6243;51.244;6.774;2023-02-18T06:06:44;2.80;;;2.60;;
12356;SDS011;6243;51.244;6.774;2023-02-18T06:09:11;3.23;;;2.63;;
12356;SDS011;6243;51.244;6.774;2023-02-18T06:11:37;3.10;;;2.60;;
12356;SDS011;6243;51.244;6.774;2023-02-18T06:14:02;3.10;;;2.80;;
12356;SDS011;6243;51.244;6.774;2023-02-18T06:16:29;2.70;;;2.40;;
12356;SDS011;6243;51.244;6.774;2023-02-18T06:18:55;3.43;;;3.13;;
12356;SDS011;6243;51.244;6.774;2023-02-18T06:21:20;4.03;;;3.63;;
12356;SDS011;6243;51.244;6.774;2023-02-18T06:23:46;3.57;;;3.27;;
12356;SDS011;6243;51.244;6.774;2023-02-18T06:26:13;3.73;;;3.10;;
12356;SDS011;6243;51.244;6.774;2023-02-18T06:28:39;3.97;;;3.57;;
12356;SDS011;6243;51.244;6.774;2023-02-18T06:31:04;3.60;;;3.30;;
12356;SDS011;6243;51.244;6.774;2023-02-18T06:33:30;4.00;;;3.60;;
12356;SDS011;6243;51.244;6.774;2023-02-18T06:35:56;3.93;;;3.57;;
12356;SDS011;6243;51.244;6.774;2023-02-18T06:38:22;3.50;;;3.13;;
12356;SDS011;6243;51.244;6.774;2023-02-18T06:40:48;3.93;;;3.57;;
12356;SDS011;6243;51.244;6.774;2023-02-18T06:43:15;3.57;;;3.23;;
12356;SDS011;6243;51.244;6.774;2023-02-18T06:45:41;3.63;;;3.33;;
12356;SDS011;6243;51.244;6.774;2023-02-18T06:48:06;3.23;;;2.93;;
12356;SDS011;6243;51.244;6.774;2023-02-18T06:50:32;3.27;;;2.97;;
12356;SDS011;6243;51.244;6.774;2023-02-18T06:52:57;3.17;;;2.97;;
12356;SDS011;6243;51.244;6.774;2023-02-18T06:55:23;3.20;;;2.60;;
12356;SDS011;6243;51.244;6.774;2023-02-18T06:57:48;2.70;;;2.50;;
12356;SDS011;6243;51.244;6.774;2023-02-18T07:00:15;2.60;;;2.40;;
12356;SDS011;6243;51.244;6.774;2023-02-18T07:02:41;2.23;;;2.03;;
12356;SDS011;6243;51.244;6.774;2023-02-18T07:05:07;2.20;;;2.00;;
12356;SDS011;6243;51.244;6.774;2023-02-18T07:07:32;2.10;;;1.90;;
12356;SDS011;6243;51.244;6.774;2023-02-18T07:09:58;2.30;;;2.10;;
12356;SDS011;6243;51.244;6.774;2023-02-18T07:12:23;2.20;;;2.03;;
12356;SDS011;6243;51.244;6.774;2023-02-18T07:14:49;2.00;;;1.90;;
12356;SDS011;6243;51.244;6.774;2023-02-18T07:17:16;1.63;;;1.53;;
12356;SDS011;6243;51.244;6.774;2023-02-18T07:19:42;1.93;;;1.60;;
12356;SDS011;6243;51.244;6.774;2023-02-18T07:22:07;1.60;;;1.50;;
12356;SDS011;6243;51.244;6.774;2023-02-18T07:24:33;1.60;;;1.50;;
12356;SDS011;6243;51.244;6.774;2023-02-18T07:26:58;2.00;;;1.83;;
12356;SDS011;6243;51.244;6.774;2023-02-18T07:29:24;1.83;;;1.73;;
12356;SDS011;6243;51.244;6.774;2023-02-18T07:31:49;1.97;;;1.77;;
12356;SDS011;6243;51.244;6.774;2023-02-18T07:34:16;4.10;;;2.37;;
12356;SDS011;6243;51.244;6.774;2023-02-18T07:36:42;3.73;;;2.10;;
12356;SDS011;6243;51.244;6.774;2023-02-18T07:39:07;3.40;;;2.50;;
12356;SDS011;6243;51.244;6.774;2023-02-18T07:41:33;2.87;;;2.57;;
12356;SDS011;6243;51.244;6.774;2023-02-18T07:43:58;2.53;;;2.33;;
12356;SDS011;6243;51.244;6.774;2023-02-18T07:46:24;2.37;;;2.17;;
12356;SDS011;6243;51.244;6.774;2023-02-18T07:48:50;2.63;;;2.43;;
12356;SDS011;6243;51.244;6.774;2023-02-18T07:51:18;2.80;;;2.40;;
12356;SDS011;6243;51.244;6.774;2023-02-18T07:53:43;2.37;;;2.17;;
12356;SDS011;6243;51.244;6.774;2023-02-18T07:56:09;3.47;;;2.20;;
12356;SDS011;6243;51.244;6.774;2023-02-18T07:58:36;1.93;;;1.70;;
12356;SDS011;6243;51.244;6.774;2023-02-18T08:01:03;2.07;;;1.80;;
12356;SDS011;6243;51.244;6.774;2023-02-18T08:03:30;2.03;;;1.83;;
12356;SDS011;6243;51.244;6.774;2023-02-18T08:05:57;1.80;;;1.70;;
12356;SDS011;6243;51.244;6.774;2023-02-18T08:08:24;2.20;;;1.47;;
12356;SDS011;6243;51.244;6.774;2023-02-18T08:10:52;3.20;;;1.70;;
12356;SDS011;6243;51.244;6.774;2023-02-18T08:13:20;2.10;;;1.40;;
12356;SDS011;6243;51.244;6.774;2023-02-18T08:15:45;1.90;;;1.40;;
12356;SDS011;6243;51.244;6.774;2023-02-18T08:18:13;4.23;;;1.57;;
12356;SDS011;6243;51.244;6.774;2023-02-18T08:20:40;3.07;;;1.37;;
12356;SDS011;6243;51.244;6.774;2023-02-18T08:23:05;2.63;;;1.60;;
12356;SDS011;6243;51.244;6.774;2023-02-18T08:25:32;1.73;;;1.53;;
12356;SDS011;6243;51.244;6.774;2023-02-18T08:27:58;2.40;;;1.70;;
12356;SDS011;6243;51.244;6.774;2023-02-18T08:30:24;2.53;;;1.53;;
12356;SDS011;6243;51.244;6.774;2023-02-18T08:32:50;2.93;;;1.60;;
12356;SDS011;6243;51.244;6.774;2023-02-18T08:35:15;2.80;;;1.83;;
12356;SDS011;6243;51.244;6.774;2023-02-18T08:37:41;3.53;;;1.73;;
12356;SDS011;6243;51.244;6.774;2023-02-18T08:40:07;2.57;;;1.37;;
12356;SDS011;6243;51.244;6.774;2023-02-18T08:42:35;2.80;;;1.97;;
12356;SDS011;6243;51.244;6.774;2023-02-18T08:45:00;3.47;;;1.83;;
12356;SDS011;6243;51.244;6.774;2023-02-18T08:47:26;2.87;;;1.80;;
12356;SDS011;6243;51.244;6.774;2023-02-18T08:49:52;3.03;;;1.73;;
12356;SDS011;6243;51.244;6.774;2023-02-18T08:52:18;3.77;;;2.13;;
12356;SDS011;6243;51.244;6.774;2023-02-18T08:54:44;4.47;;;2.03;;
12356;SDS011;6243;51.244;6.774;2023-02-18T08:57:09;7.07;;;1.90;;
12356;SDS011;6243;51.244;6.774;2023-02-18T08:59:36;3.87;;;2.03;;
12356;SDS011;6243;51.244;6.774;2023-02-18T09:02:02;3.37;;;1.70;;
12356;SDS011;6243;51.244;6.774;2023-02-18T09:04:27;6.27;;;2.27;;
12356;SDS011;6243;51.244;6.774;2023-02-18T09:06:53;5.90;;;2.13;;
12356;SDS011;6243;51.244;6.774;2023-02-18T09:09:19;6.37;;;2.27;;
12356;SDS011;6243;51.244;6.774;2023-02-18T09:11:44;3.77;;;2.13;;
12356;SDS011;6243;51.244;6.774;2023-02-18T09:14:10;3.07;;;1.93;;
12356;SDS011;6243;51.244;6.774;2023-02-18T09:16:37;3.90;;;2.17;;
12356;SDS011;6243;51.244;6.774;2023-02-18T09:19:03;6.27;;;2.00;;
12356;SDS011;6243;51.244;6.774;2023-02-18T09:21:29;7.47;;;2.23;;
12356;SDS011;6243;51.244;6.774;2023-02-18T09:23:54;6.97;;;2.10;;
12356;SDS011;6243;51.244;6.774;2023-02-18T09:26:20;4.13;;;2.03;;
12356;SDS011;6243;51.244;6.774;2023-02-18T09:28:46;5.93;;;2.40;;
12356;SDS011;6243;51.244;6.774;2023-02-18T09:31:12;6.20;;;2.53;;
12356;SDS011;6243;51.244;6.774;2023-02-18T09:33:41;4.37;;;2.30;;
12356;SDS011;6243;51.244;6.774;2023-02-18T09:36:08;5.67;;;2.47;;
12356;SDS011;6243;51.244;6.774;2023-02-18T09:38:34;6.17;;;2.10;;
12356;SDS011;6243;51.244;6.774;2023-02-18T09:41:00;3.57;;;2.10;;
12356;SDS011;6243;51.244;6.774;2023-02-18T09:43:29;8.80;;;2.63;;
12356;SDS011;6243;51.244;6.774;2023-02-18T09:45:57;5.07;;;2.13;;
12356;SDS011;6243;51.244;6.774;2023-02-18T09:48:25;6.67;;;2.40;;
12356;SDS011;6243;51.244;6.774;2023-02-18T09:50:56;6.37;;;2.40;;
12356;SDS011;6243;51.244;6.774;2023-02-18T09:53:22;3.80;;;2.20;;
12356;SDS011;6243;51.244;6.774;2023-02-18T09:55:48;9.07;;;2.60;;
12356;SDS011;6243;51.244;6.774;2023-02-18T09:58:15;7.77;;;2.70;;
12356;SDS011;6243;51.244;6.774;2023-02-18T10:00:44;6.17;;;2.27;;
12356;SDS011;6243;51.244;6.774;2023-02-18T10:03:14;6.77;;;2.73;;
12356;SDS011;6243;51.244;6.774;2023-02-18T10:05:41;6.70;;;2.53;;
12356;SDS011;6243;51.244;6.774;2023-02-18T10:08:20;7.33;;;2.70;;
12356;SDS011;6243;51.244;6.774;2023-02-18T10:10:49;9.70;;;3.03;;
12356;SDS011;6243;51.244;6.774;2023-02-18T10:13:16;8.00;;;2.43;;
12356;SDS011;6243;51.244;6.774;2023-02-18T10:15:44;6.17;;;2.73;;
12356;SDS011;6243;51.244;6.774;2023-02-18T10:18:15;5.67;;;2.23;;
12356;SDS011;6243;51.244;6.774;2023-02-18T10:20:45;7.10;;;2.70;;
12356;SDS011;6243;51.244;6.774;2023-02-18T10:23:13;7.47;;;2.40;;
12356;SDS011;6243;51.244;6.774;2023-02-18T10:25:41;6.30;;;2.40;;
12356;SDS011;6243;51.244;6.774;2023-02-18T10:28:08;8.93;;;2.60;;
12356;SDS011;6243;51.244;6.774;2023-02-18T10:30:37;9.47;;;3.00;;
12356;SDS011;6243;51.244;6.774;2023-02-18T10:33:10;6.90;;;2.53;;
12356;SDS011;6243;51.244;6.774;2023-02-18T10:35:47;7.20;;;2.80;;
12356;SDS011;6243;51.244;6.774;2023-02-18T10:38:19;9.77;;;2.83;;
12356;SDS011;6243;51.244;6.774;2023-02-18T10:40:54;6.37;;;2.57;;
12356;SDS011;6243;51.244;6.774;2023-02-18T10:43:30;8.63;;;2.97;;
12356;SDS011;6243;51.244;6.774;2023-02-18T10:46:05;6.07;;;2.53;;
12356;SDS011;6243;51.244;6.774;2023-02-18T10:48:43;6.03;;;2.50;;
12356;SDS011;6243;51.244;6.774;2023-02-18T10:51:30;6.83;;;2.60;;
12356;SDS011;6243;51.244;6.774;2023-02-18T10:53:57;5.40;;;2.13;;
12356;SDS011;6243;51.244;6.774;2023-02-18T10:56:37;16.97;;;3.20;;
12356;SDS011;6243;51.244;6.774;2023-02-18T10:59:05;8.83;;;2.70;;
12356;SDS011;6243;51.244;6.774;2023-02-18T11:01:34;6.37;;;3.10;;
12356;SDS011;6243;51.244;6.774;2023-02-18T11:04:04;7.27;;;2.10;;
12356;SDS011;6243;51.244;6.774;2023-02-18T11:06:37;7.93;;;2.60;;
12356;SDS011;6243;51.244;6.774;2023-02-18T11:09:05;4.97;;;2.03;;
12356;SDS011;6243;51.244;6.774;2023-02-18T11:11:32;6.57;;;2.20;;
12356;SDS011;6243;51.244;6.774;2023-02-18T11:14:04;7.07;;;2.77;;
12356;SDS011;6243;51.244;6.774;2023-02-18T11:16:38;6.10;;;2.57;;
12356;SDS011;6243;51.244;6.774;2023-02-18T11:19:04;5.50;;;2.90;;
12356;SDS011;6243;51.244;6.774;2023-02-18T11:21:52;7.03;;;2.50;;
12356;SDS011;6243;51.244;6.774;2023-02-18T11:24:32;4.37;;;2.27;;
12356;SDS011;6243;51.244;6.774;2023-02-18T11:27:03;6.07;;;2.10;;
12356;SDS011;6243;51.244;6.774;2023-02-18T11:29:34;5.43;;;2.47;;
12356;SDS011;6243;51.244;6.774;2023-02-18T11:32:00;4.23;;;2.40;;
12356;SDS011;6243;51.244;6.774;2023-02-18T11:34:27;6.33;;;2.30;;
12356;SDS011;6243;51.244;6.774;2023-02-18T11:36:55;3.90;;;2.03;;
12356;SDS011;6243;51.244;6.774;2023-02-18T11:39:33;4.30;;;2.10;;
12356;SDS011;6243;51.244;6.774;2023-02-18T11:42:00;3.00;;;2.00;;
12356;SDS011;6243;51.244;6.774;2023-02-18T11:44:29;4.97;;;2.67;;
12356;SDS011;6243;51.244;6.774;2023-02-18T11:47:00;4.70;;;2.33;;
12356;SDS011;6243;51.244;6.774;2023-02-18T11:49:27;4.20;;;1.87;;
12356;SDS011;6243;51.244;6.774;2023-02-18T11:51:54;3.27;;;2.37;;
12356;SDS011;6243;51.244;6.774;2023-02-18T11:54:27;6.53;;;2.30;;
12356;SDS011;6243;51.244;6.774;2023-02-18T11:56:56;4.10;;;2.00;;
12356;SDS011;6243;51.244;6.774;2023-02-18T11:59:23;3.43;;;2.13;;
12356;SDS011;6243;51.244;6.774;2023-02-18T12:01:50;4.57;;;2.60;;
12356;SDS011;6243;51.244;6.774;2023-02-18T12:04:23;3.43;;;2.40;;
12356;SDS011;6243;51.244;6.774;2023-02-18T12:06:54;4.37;;;2.37;;
12356;SDS011;6243;51.244;6.774;2023-02-18T12:09:33;3.60;;;2.33;;
12356;SDS011;6243;51.244;6.774;2023-02-18T12:12:02;2.30;;;2.10;;
12356;SDS011;6243;51.244;6.774;2023-02-18T12:14:33;2.67;;;2.30;;
12356;SDS011;6243;51.244;6.774;2023-02-18T12:19:55;4.30;;;2.43;;
12356;SDS011;6243;51.244;6.774;2023-02-18T12:22:38;2.73;;;1.90;;
12356;SDS011;6243;51.244;6.774;2023-02-18T12:25:12;4.00;;;2.37;;
12356;SDS011;6243;51.244;6.774;2023-02-18T12:27:50;3.47;;;2.10;;
12356;SDS011;6243;51.244;6.774;2023-02-18T12:30:29;2.53;;;1.70;;
12356;SDS011;6243;51.244;6.774;2023-02-18T12:33:07;2.30;;;2.10;;
12356;SDS011;6243;51.244;6.774;2023-02-18T12:35:48;4.60;;;2.27;;
12356;SDS011;6243;51.244;6.774;2023-02-18T12:38:38;2.67;;;1.80;;
12356;SDS011;6243;51.244;6.774;2023-02-18T12:41:29;2.50;;;2.23;;
12356;SDS011;6243;51.244;6.774;2023-02-18T12:44:05;3.00;;;2.27;;
12356;SDS011;6243;51.244;6.774;2023-02-18T12:46:47;4.57;;;2.30;;
12356;SDS011;6243;51.244;6.774;2023-02-18T12:52:15;5.03;;;2.30;;
12356;SDS011;6243;51.244;6.774;2023-02-18T12:55:02;2.27;;;2.00;;
12356;SDS011;6243;51.244;6.774;2023-02-18T12:57:48;1.90;;;1.80;;
12356;SDS011;6243;51.244;6.774;2023-02-18T13:03:30;3.07;;;2.40;;
12356;SDS011;6243;51.244;6.774;2023-02-18T13:06:39;4.30;;;2.70;;
12356;SDS011;6243;51.244;6.774;2023-02-18T13:09:15;3.37;;;2.23;;
12356;SDS011;6243;51.244;6.774;2023-02-18T13:11:49;2.10;;;2.00;;
12356;SDS011;6243;51.244;6.774;2023-02-18T13:14:22;3.33;;;2.47;;
12356;SDS011;6243;51.244;6.774;2023-02-18T13:16:51;3.57;;;2.43;;
12356;SDS011;6243;51.244;6.774;2023-02-18T13:19:19;2.80;;;2.50;;
12356;SDS011;6243;51.244;6.774;2023-02-18T13:21:49;4.87;;;2.60;;
12356;SDS011;6243;51.244;6.774;2023-02-18T13:24:20;2.90;;;2.60;;
12356;SDS011;6243;51.244;6.774;2023-02-18T13:26:52;3.03;;;2.60;;
12356;SDS011;6243;51.244;6.774;2023-02-18T13:29:24;5.13;;;2.63;;
12356;SDS011;6243;51.244;6.774;2023-02-18T13:31:57;4.77;;;2.60;;
12356;SDS011;6243;51.244;6.774;2023-02-18T13:34:31;2.83;;;2.60;;
12356;SDS011;6243;51.244;6.774;2023-02-18T13:37:06;3.20;;;2.80;;
12356;SDS011;6243;51.244;6.774;2023-02-18T13:39:49;2.87;;;2.67;;
12356;SDS011;6243;51.244;6.774;2023-02-18T13:42:25;3.33;;;2.13;;
12356;SDS011;6243;51.244;6.774;2023-02-18T13:45:06;3.37;;;2.43;;
12356;SDS011;6243;51.244;6.774;2023-02-18T13:47:55;3.10;;;2.60;;
12356;SDS011;6243;51.244;6.774;2023-02-18T13:50:23;2.87;;;2.63;;
12356;SDS011;6243;51.244;6.774;2023-02-18T13:52:59;3.10;;;2.77;;
12356;SDS011;6243;51.244;6.774;2023-02-18T13:55:59;4.50;;;3.27;;
12356;SDS011;6243;51.244;6.774;2023-02-18T13:58:29;5.17;;;2.63;;
12356;SDS011;6243;51.244;6.774;2023-02-18T14:01:00;4.30;;;3.17;;
12356;SDS011;6243;51.244;6.774;2023-02-18T14:03:31;4.37;;;3.10;;
12356;SDS011;6243;51.244;6.774;2023-02-18T14:05:59;3.20;;;2.90;;
12356;SDS011;6243;51.244;6.774;2023-02-18T14:08:30;4.07;;;2.73;;
12356;SDS011;6243;51.244;6.774;2023-02-18T14:17:13;5.33;;;3.90;;
12356;SDS011;6243;51.244;6.774;2023-02-18T14:19:53;4.07;;;3.50;;
12356;SDS011;6243;51.244;6.774;2023-02-18T14:22:26;5.60;;;3.63;;
12356;SDS011;6243;51.244;6.774;2023-02-18T14:24:55;5.23;;;4.03;;
12356;SDS011;6243;51.244;6.774;2023-02-18T14:27:25;6.00;;;3.83;;
12356;SDS011;6243;51.244;6.774;2023-02-18T14:29:51;7.60;;;4.20;;
12356;SDS011;6243;51.244;6.774;2023-02-18T14:32:17;6.67;;;4.10;;
12356;SDS011;6243;51.244;6.774;2023-02-18T14:34:47;5.67;;;3.83;;
12356;SDS011;6243;51.244;6.774;2023-02-18T14:43:30;5.23;;;4.10;;
12356;SDS011;6243;51.244;6.774;2023-02-18T14:46:09;7.77;;;4.37;;
12356;SDS011;6243;51.244;6.774;2023-02-18T14:48:54;5.00;;;3.90;;
12356;SDS011;6243;51.244;6.774;2023-02-18T14:51:33;4.87;;;4.00;;
12356;SDS011;6243;51.244;6.774;2023-02-18T14:54:02;5.23;;;3.77;;
12356;SDS011;6243;51.244;6.774;2023-02-18T14:56:29;6.33;;;4.00;;
12356;SDS011;6243;51.244;6.774;2023-02-18T14:58:58;5.23;;;4.00;;
12356;SDS011;6243;51.244;6.774;2023-02-18T15:01:27;5.67;;;3.97;;
12356;SDS011;6243;51.244;6.774;2023-02-18T15:03:55;4.10;;;3.70;;
12356;SDS011;6243;51.244;6.774;2023-02-18T15:06:22;3.83;;;3.47;;
12356;SDS011;6243;51.244;6.774;2023-02-18T15:08:49;4.57;;;3.57;;
12356;SDS011;6243;51.244;6.774;2023-02-18T15:11:14;5.67;;;3.27;;
12356;SDS011;6243;51.244;6.774;2023-02-18T15:13:42;5.30;;;3.77;;
12356;SDS011;6243;51.244;6.774;2023-02-18T15:16:12;3.30;;;3.00;;
12356;SDS011;6243;51.244;6.774;2023-02-18T15:18:43;3.30;;;3.00;;
12356;SDS011;6243;51.244;6.774;2023-02-18T15:21:15;4.03;;;3.13;;
12356;SDS011;6243;51.244;6.774;2023-02-18T15:23:45;3.10;;;2.90;;
12356;SDS011;6243;51.244;6.774;2023-02-18T15:26:11;2.80;;;2.60;;
12356;SDS011;6243;51.244;6.774;2023-02-18T15:28:40;3.00;;;2.70;;
12356;SDS011;6243;51.244;6.774;2023-02-18T15:31:16;5.83;;;3.17;;
12356;SDS011;6243;51.244;6.774;2023-02-18T15:33:42;3.23;;;2.93;;
12356;SDS011;6243;51.244;6.774;2023-02-18T15:36:08;3.10;;;2.80;;
12356;SDS011;6243;51.244;6.774;2023-02-18T15:38:38;3.47;;;2.50;;
12356;SDS011;6243;51.244;6.774;2023-02-18T15:41:04;3.67;;;2.90;;
12356;SDS011;6243;51.244;6.774;2023-02-18T15:43:35;3.63;;;3.30;;